Time;durP1;ratioP1;P1;durP2;ratioP2;P2;SDS_P1;SDS_P2;PMS_P1;PMS_P2;Temp;Humidity;BMP_temperature;BMP_pressure;BME280_temperature;BME280_humidity;BME280_pressure;Samples;Min_cycle;Max_cycle;Signal;HPM_P1;HPM_P2
2023/09/28 00:02:22;;;;;;;36.65;26.77;;;21.30;57.60;;;;;;5016936;28;20535;-78
2023/09/28 00:04:50;;;;;;;35.95;26.52;;;21.30;57.60;;;;;;5016461;28;20562;-78
2023/09/28 00:07:16;;;;;;;38.00;25.23;;;21.30;57.60;;;;;;5016123;28;20224;-78
2023/09/28 00:09:43;;;;;;;35.50;25.55;;;21.30;57.60;;;;;;5016965;28;20570;-77
2023/09/28 00:12:09;;;;;;;31.40;23.80;;;21.20;57.60;;;;;;5017807;28;20212;-78
2023/09/28 00:14:36;;;;;;;32.03;22.50;;;21.20;57.60;;;;;;5019195;28;20256;-78
2023/09/28 00:17:03;;;;;;;30.67;23.02;;;21.20;57.60;;;;;;5017856;28;20200;-78
2023/09/28 00:19:30;;;;;;;30.38;23.00;;;21.30;57.70;;;;;;5018182;28;20217;-78
2023/09/28 00:21:57;;;;;;;30.13;22.50;;;21.20;57.60;;;;;;5015866;28;20197;-78
2023/09/28 00:24:24;;;;;;;29.23;21.60;;;21.20;57.60;;;;;;5015356;28;20323;-78
2023/09/28 00:26:51;;;;;;;31.83;21.00;;;21.20;57.70;;;;;;5015563;28;20659;-78
2023/09/28 00:29:19;;;;;;;26.40;20.70;;;21.20;57.70;;;;;;5015487;28;20208;-78
2023/09/28 00:31:45;;;;;;;29.25;19.75;;;21.20;57.70;;;;;;5014765;28;20240;-78
2023/09/28 00:34:13;;;;;;;25.02;19.08;;;21.20;57.60;;;;;;5024960;28;20172;-78
2023/09/28 00:36:39;;;;;;;25.85;18.42;;;21.20;57.60;;;;;;5016377;28;20200;-78
2023/09/28 00:39:08;;;;;;;25.08;17.85;;;21.20;57.50;;;;;;5016600;28;20216;-78
2023/09/28 00:41:34;;;;;;;23.45;17.67;;;21.10;57.50;;;;;;5017197;28;20204;-78
2023/09/28 00:44:01;;;;;;;24.05;17.90;;;21.10;57.50;;;;;;5000583;28;20196;-78
2023/09/28 00:46:29;;;;;;;24.02;17.88;;;21.20;57.60;;;;;;5016806;28;20224;-78
2023/09/28 00:48:59;;;;;;;24.27;17.02;;;21.10;57.50;;;;;;5017431;28;20205;-78
2023/09/28 00:51:27;;;;;;;23.77;16.73;;;21.10;57.50;;;;;;5019893;28;20277;-78
2023/09/28 00:53:55;;;;;;;21.98;16.88;;;21.10;58.10;;;;;;5019994;28;20197;-78
2023/09/28 00:56:23;;;;;;;21.60;16.25;;;21.10;57.60;;;;;;5019737;28;20208;-78
2023/09/28 00:58:52;;;;;;;19.80;15.57;;;21.10;57.60;;;;;;5018937;28;20208;-78
2023/09/28 01:01:17;;;;;;;21.23;15.43;;;21.10;57.50;;;;;;5019615;28;20207;-78
2023/09/28 01:03:45;;;;;;;22.10;15.60;;;21.10;57.50;;;;;;5019320;28;20204;-78
2023/09/28 01:06:12;;;;;;;21.50;15.43;;;21.00;57.50;;;;;;5019444;28;20201;-78
2023/09/28 01:08:39;;;;;;;21.25;14.60;;;21.10;57.60;;;;;;5018925;28;20197;-78
2023/09/28 01:11:07;;;;;;;16.40;13.85;;;21.00;57.50;;;;;;5018874;28;20217;-78
2023/09/28 01:13:35;;;;;;;19.33;14.35;;;21.10;57.60;;;;;;5018596;28;20301;-78
2023/09/28 01:16:02;;;;;;;17.90;13.93;;;21.00;57.50;;;;;;5019857;28;20197;-78
2023/09/28 01:18:28;;;;;;;17.25;14.00;;;21.00;57.50;;;;;;5018562;28;20616;-78
2023/09/28 01:20:55;;;;;;;19.55;14.45;;;21.10;57.60;;;;;;5017838;28;20217;-78
2023/09/28 01:23:23;;;;;;;17.77;13.48;;;21.00;57.50;;;;;;5019395;28;20224;-78
2023/09/28 01:25:50;;;;;;;17.13;13.52;;;21.00;57.50;;;;;;5017891;28;20209;-78
2023/09/28 01:28:16;;;;;;;15.15;12.60;;;21.00;57.50;;;;;;5018310;28;20252;-78
2023/09/28 01:30:43;;;;;;;14.85;12.75;;;21.00;57.50;;;;;;5014727;28;20220;-78
2023/09/28 01:33:10;;;;;;;16.10;12.90;;;21.00;57.50;;;;;;5014734;28;20692;-78
2023/09/28 01:35:37;;;;;;;17.08;11.98;;;20.90;57.50;;;;;;5015750;28;20643;-78
2023/09/28 01:38:09;;;;;;;15.02;11.73;;;21.00;57.60;;;;;;5039229;28;20184;-78
2023/09/28 01:40:37;;;;;;;15.60;11.88;;;21.00;57.50;;;;;;5022654;28;20201;-78
2023/09/28 01:43:06;;;;;;;14.15;11.30;;;21.00;57.50;;;;;;5038775;28;20236;-78
2023/09/28 01:45:34;;;;;;;15.88;11.60;;;21.00;57.60;;;;;;5032930;28;20189;-78
2023/09/28 01:48:00;;;;;;;15.55;11.07;;;21.00;57.60;;;;;;5025176;28;20208;-78
2023/09/28 01:50:27;;;;;;;14.98;11.93;;;20.90;57.50;;;;;;5024773;28;20307;-78
2023/09/28 01:52:53;;;;;;;15.02;11.30;;;21.00;57.60;;;;;;5024499;28;20226;-78
2023/09/28 01:55:20;;;;;;;13.25;10.75;;;21.00;57.60;;;;;;5024044;28;20232;-78
2023/09/28 01:57:48;;;;;;;11.30;10.10;;;20.90;57.50;;;;;;5023554;28;20492;-78
2023/09/28 02:00:17;;;;;;;13.48;10.90;;;20.90;58.10;;;;;;5023601;28;20266;-78
2023/09/28 02:02:43;;;;;;;11.82;10.02;;;20.90;57.50;;;;;;5021594;28;20201;-78
2023/09/28 02:05:11;;;;;;;12.50;9.68;;;21.00;57.60;;;;;;5016793;28;20199;-78
2023/09/28 02:07:37;;;;;;;11.10;9.02;;;20.90;57.50;;;;;;5015359;28;20208;-78
2023/09/28 02:10:05;;;;;;;11.02;9.60;;;20.90;57.50;;;;;;5015404;28;20212;-78
2023/09/28 02:12:31;;;;;;;12.20;9.52;;;20.90;57.50;;;;;;5027405;28;20236;-78
2023/09/28 02:15:01;;;;;;;13.02;9.55;;;20.90;57.40;;;;;;5014344;28;20204;-78
2023/09/28 02:17:27;;;;;;;11.77;9.13;;;20.90;57.50;;;;;;5013501;28;20200;-78
2023/09/28 02:19:56;;;;;;;10.45;9.15;;;20.90;57.50;;;;;;5014372;28;20208;-78
2023/09/28 02:22:22;;;;;;;10.02;9.00;;;20.90;57.50;;;;;;5015232;28;20197;-78
2023/09/28 02:24:51;;;;;;;10.95;9.43;;;20.90;57.50;;;;;;5015596;28;20242;-78
2023/09/28 02:27:17;;;;;;;11.35;9.00;;;20.90;57.50;;;;;;5015583;28;20287;-78
2023/09/28 02:29:44;;;;;;;10.32;8.73;;;20.80;57.50;;;;;;5015334;28;20220;-78
2023/09/28 02:32:13;;;;;;;11.70;8.73;;;20.90;57.50;;;;;;5015660;28;20216;-78
2023/09/28 02:34:40;;;;;;;10.82;8.77;;;20.90;57.60;;;;;;5016492;28;20212;-78
2023/09/28 02:37:06;;;;;;;9.60;8.30;;;20.90;57.50;;;;;;5016208;28;20200;-78
2023/09/28 02:39:35;;;;;;;10.35;8.38;;;20.80;57.50;;;;;;5015718;28;20267;-78
2023/09/28 02:42:07;;;;;;;10.02;8.27;;;20.90;57.60;;;;;;5015817;28;20201;-78
2023/09/28 02:44:33;;;;;;;8.98;7.70;;;20.90;57.60;;;;;;5016247;28;20189;-78
2023/09/28 02:47:00;;;;;;;11.73;7.75;;;20.90;57.50;;;;;;5016780;28;20235;-78
2023/09/28 02:49:27;;;;;;;10.35;7.85;;;20.80;57.50;;;;;;5016998;28;20231;-78
2023/09/28 02:51:54;;;;;;;10.85;7.88;;;20.80;57.60;;;;;;5015800;28;20232;-78
2023/09/28 02:54:20;;;;;;;8.82;7.57;;;20.80;57.60;;;;;;5015796;28;20204;-78
2023/09/28 02:56:49;;;;;;;9.07;7.65;;;20.80;57.60;;;;;;5016654;28;20207;-78
2023/09/28 02:59:21;;;;;;;8.88;7.00;;;20.80;57.60;;;;;;5016017;28;20232;-78
2023/09/28 03:01:49;;;;;;;9.27;7.82;;;20.80;57.60;;;;;;5016145;28;20207;-78
2023/09/28 03:04:15;;;;;;;8.63;7.28;;;20.80;57.70;;;;;;5015277;28;20197;-77
2023/09/28 03:06:44;;;;;;;8.52;7.05;;;20.80;57.70;;;;;;5013682;28;20283;-78
2023/09/28 03:09:12;;;;;;;8.32;6.90;;;20.80;57.60;;;;;;5014578;28;20216;-78
2023/09/28 03:11:39;;;;;;;8.38;7.13;;;20.80;57.60;;;;;;5019001;28;20207;-78
2023/09/28 03:14:06;;;;;;;9.40;6.65;;;20.80;57.60;;;;;;5020212;28;20279;-78
2023/09/28 03:16:33;;;;;;;7.60;6.78;;;20.80;57.50;;;;;;5018444;28;20243;-78
2023/09/28 03:19:00;;;;;;;8.32;6.22;;;20.80;57.50;;;;;;5018394;28;20237;-78
2023/09/28 03:21:29;;;;;;;7.45;6.65;;;20.90;57.50;;;;;;5018423;28;20677;-78
2023/09/28 03:23:58;;;;;;;7.90;6.18;;;20.90;57.50;;;;;;5019304;28;20265;-78
2023/09/28 03:26:24;;;;;;;7.38;6.07;;;20.90;57.40;;;;;;5019762;28;20205;-78
2023/09/28 03:28:52;;;;;;;7.22;5.80;;;20.90;57.20;;;;;;5020469;28;20276;-78
2023/09/28 03:31:18;;;;;;;7.38;6.10;;;21.00;57.10;;;;;;5018712;28;20201;-78
2023/09/28 03:33:45;;;;;;;7.70;6.30;;;21.00;57.10;;;;;;5018489;28;20316;-78
2023/09/28 03:36:12;;;;;;;7.60;6.07;;;21.10;56.90;;;;;;5018803;28;20196;-78
2023/09/28 03:38:39;;;;;;;6.15;5.55;;;21.10;56.80;;;;;;5020199;28;20192;-78
2023/09/28 03:41:08;;;;;;;6.50;5.53;;;21.20;56.70;;;;;;5019259;28;20227;-78
2023/09/28 03:43:35;;;;;;;6.20;5.53;;;21.20;56.70;;;;;;5018172;28;20569;-78
2023/09/28 03:46:03;;;;;;;6.47;5.85;;;21.20;56.60;;;;;;5018574;28;20200;-78
2023/09/28 03:48:30;;;;;;;5.85;5.25;;;21.20;56.50;;;;;;5018069;28;20228;-78
2023/09/28 03:50:57;;;;;;;5.82;5.20;;;21.20;56.40;;;;;;5018014;28;20247;-78
2023/09/28 03:53:24;;;;;;;6.20;5.60;;;21.30;56.30;;;;;;5017963;28;20307;-78
2023/09/28 03:55:51;;;;;;;6.45;5.22;;;21.30;56.30;;;;;;5019114;28;20255;-78
2023/09/28 03:58:19;;;;;;;5.45;4.57;;;21.30;56.20;;;;;;5017986;28;20197;-78
2023/09/28 04:00:46;;;;;;;6.13;5.00;;;21.30;56.10;;;;;;5016425;28;20221;-78
2023/09/28 04:03:13;;;;;;;6.38;5.03;;;21.40;56.20;;;;;;5016648;28;20203;-78
2023/09/28 04:05:40;;;;;;;5.47;4.90;;;21.40;56.20;;;;;;5017772;28;20201;-78
2023/09/28 04:08:07;;;;;;;6.07;5.15;;;21.40;56.00;;;;;;5017479;28;20667;-78
2023/09/28 04:10:34;;;;;;;6.10;4.63;;;21.40;56.20;;;;;;5017497;28;20227;-78
2023/09/28 04:13:02;;;;;;;6.85;5.07;;;21.30;56.20;;;;;;5002039;28;20220;-78
2023/09/28 04:15:30;;;;;;;4.57;4.18;;;21.30;56.20;;;;;;5017798;28;20204;-78
2023/09/28 04:17:57;;;;;;;4.95;4.55;;;21.40;56.20;;;;;;5016080;28;20204;-78
2023/09/28 04:20:24;;;;;;;5.43;4.78;;;21.30;56.10;;;;;;5015468;28;20232;-78
2023/09/28 04:22:51;;;;;;;5.38;4.38;;;21.30;56.20;;;;;;5016058;28;20232;-78
2023/09/28 04:25:20;;;;;;;5.03;4.55;;;21.30;56.10;;;;;;5016361;28;20207;-78
2023/09/28 04:27:48;;;;;;;4.78;4.22;;;21.30;56.10;;;;;;5016771;28;20201;-78
2023/09/28 04:30:14;;;;;;;5.47;4.90;;;21.30;56.20;;;;;;5018309;28;20213;-78
2023/09/28 04:32:43;;;;;;;4.75;4.25;;;21.30;56.20;;;;;;5018253;28;20220;-78
2023/09/28 04:35:13;;;;;;;6.03;4.47;;;21.30;56.20;;;;;;5017030;28;20251;-78
2023/09/28 04:37:40;;;;;;;4.40;4.00;;;21.20;56.20;;;;;;5017341;28;20211;-77
2023/09/28 04:40:09;;;;;;;4.80;3.90;;;21.20;56.00;;;;;;5015635;28;20212;-78
2023/09/28 04:42:36;;;;;;;6.00;3.90;;;21.20;55.50;;;;;;5017177;28;20197;-78
2023/09/28 04:45:04;;;;;;;4.05;3.65;;;21.20;55.50;;;;;;5016067;28;20266;-78
2023/09/28 04:47:32;;;;;;;4.97;3.88;;;21.20;55.60;;;;;;5015939;28;20204;-78
2023/09/28 04:50:00;;;;;;;5.30;4.25;;;21.20;55.80;;;;;;5014464;28;20477;-78
2023/09/28 04:52:28;;;;;;;4.65;4.00;;;21.20;55.40;;;;;;5014866;28;20225;-78
2023/09/28 04:54:55;;;;;;;4.95;4.20;;;21.10;55.60;;;;;;5014805;28;20572;-78
2023/09/28 04:59:57;;;;;;;5.38;3.80;;;21.10;56.10;;;;;;4994958;28;20236;-78
2023/09/28 05:05:16;;;;;;;5.22;3.88;;;21.10;56.00;;;;;;5028621;22;20679;-78
2023/09/28 05:07:43;;;;;;;4.72;3.47;;;21.10;56.00;;;;;;5143841;22;20255;-77
2023/09/28 05:10:11;;;;;;;4.10;3.42;;;21.10;55.90;;;;;;5033854;28;20220;-77
2023/09/28 05:12:38;;;;;;;4.97;3.83;;;21.10;56.00;;;;;;5033683;28;20217;-76
2023/09/28 05:15:08;;;;;;;3.40;3.10;;;21.00;56.00;;;;;;5033847;28;20550;-77
2023/09/28 05:17:35;;;;;;;4.15;3.65;;;21.00;56.20;;;;;;5033591;28;20207;-77
2023/09/28 05:20:02;;;;;;;3.88;3.47;;;21.00;55.90;;;;;;5033563;28;20220;-77
2023/09/28 05:22:30;;;;;;;5.68;3.53;;;21.00;55.40;;;;;;5033798;28;20207;-77
2023/09/28 05:24:56;;;;;;;4.35;3.70;;;21.00;55.40;;;;;;5033409;28;20200;-77
2023/09/28 05:27:23;;;;;;;3.85;3.45;;;21.00;55.20;;;;;;5033214;28;20192;-77
2023/09/28 05:29:50;;;;;;;3.88;3.40;;;21.00;55.00;;;;;;5033219;28;20216;-77
2023/09/28 05:32:17;;;;;;;3.70;3.40;;;20.90;55.00;;;;;;5047789;22;20224;-79
2023/09/28 05:34:44;;;;;;;4.03;3.22;;;21.00;55.10;;;;;;5016297;28;20659;-80
2023/09/28 05:37:11;;;;;;;3.67;3.25;;;20.90;54.90;;;;;;5014577;28;20205;-79
2023/09/28 05:39:40;;;;;;;3.58;3.17;;;20.90;55.00;;;;;;5010698;28;20255;-78
2023/09/28 05:42:07;;;;;;;3.50;3.20;;;20.90;55.00;;;;;;4997976;28;20201;-77
2023/09/28 05:44:34;;;;;;;3.50;3.20;;;20.90;55.00;;;;;;5003356;28;20734;-77
2023/09/28 05:47:01;;;;;;;3.70;3.40;;;20.90;55.20;;;;;;5028625;28;20197;-77
2023/09/28 05:49:29;;;;;;;4.30;2.80;;;20.90;55.50;;;;;;5027424;28;20228;-77
2023/09/28 05:51:56;;;;;;;4.45;3.00;;;20.90;55.60;;;;;;5012958;28;20291;-77
2023/09/28 05:54:23;;;;;;;3.20;3.00;;;20.90;55.60;;;;;;5013395;28;20271;-78
2023/09/28 05:56:51;;;;;;;5.22;3.38;;;20.90;55.50;;;;;;5013953;28;20201;-78
2023/09/28 05:59:19;;;;;;;3.50;3.20;;;20.90;55.60;;;;;;5014461;28;20695;-78
2023/09/28 06:01:46;;;;;;;4.00;3.60;;;20.90;55.50;;;;;;5013273;28;20209;-78
2023/09/28 06:04:13;;;;;;;3.50;3.20;;;20.90;55.30;;;;;;5013156;28;20255;-78
2023/09/28 06:06:40;;;;;;;3.38;3.08;;;20.80;55.50;;;;;;5029742;28;20655;-78
2023/09/28 06:09:07;;;;;;;4.15;3.10;;;20.90;55.70;;;;;;5013324;28;20266;-78
2023/09/28 06:11:34;;;;;;;3.17;2.88;;;20.90;55.70;;;;;;5013253;28;20250;-78
2023/09/28 06:14:03;;;;;;;3.88;3.33;;;20.90;55.50;;;;;;5029577;28;20220;-78
2023/09/28 06:16:30;;;;;;;3.50;3.20;;;20.90;55.50;;;;;;5029531;28;20235;-78
2023/09/28 06:18:57;;;;;;;4.20;3.05;;;21.00;55.40;;;;;;5012992;28;20200;-78
2023/09/28 06:21:24;;;;;;;4.53;3.10;;;21.00;55.40;;;;;;5029520;28;20205;-78
2023/09/28 06:23:51;;;;;;;5.03;3.40;;;21.00;55.00;;;;;;5029919;28;20193;-77
2023/09/28 06:26:18;;;;;;;3.50;3.20;;;21.10;54.90;;;;;;5013097;28;20271;-77
2023/09/28 06:28:45;;;;;;;3.97;3.58;;;21.10;54.90;;;;;;5012715;28;20680;-77
2023/09/28 06:31:15;;;;;;;3.78;3.15;;;21.10;54.70;;;;;;5013001;28;20216;-77
2023/09/28 06:33:42;;;;;;;3.80;3.40;;;21.20;54.70;;;;;;5029530;28;20279;-77
2023/09/28 06:36:09;;;;;;;3.13;2.88;;;21.20;54.80;;;;;;5013960;28;20201;-77
2023/09/28 06:38:36;;;;;;;3.60;3.30;;;21.20;54.90;;;;;;5013860;28;20207;-77
2023/09/28 06:41:03;;;;;;;3.50;2.80;;;21.20;54.70;;;;;;4998097;28;20706;-77
2023/09/28 06:43:30;;;;;;;3.35;3.05;;;21.20;54.90;;;;;;5030152;28;20216;-78
2023/09/28 06:45:58;;;;;;;3.72;3.42;;;21.30;54.90;;;;;;5017091;28;20695;-77
2023/09/28 06:48:26;;;;;;;3.75;3.35;;;21.30;54.80;;;;;;5016629;28;20208;-78
2023/09/28 06:50:54;;;;;;;3.50;3.20;;;21.30;54.70;;;;;;5033275;28;20780;-78
2023/09/28 06:53:21;;;;;;;3.40;3.00;;;21.40;54.50;;;;;;5016752;28;20637;-78
2023/09/28 06:55:48;;;;;;;3.33;3.03;;;21.40;54.40;;;;;;5016694;28;20197;-78
2023/09/28 06:58:17;;;;;;;3.20;2.95;;;21.40;54.30;;;;;;5016523;28;20287;-78
2023/09/28 07:00:44;;;;;;;3.53;3.22;;;21.50;54.20;;;;;;5016642;28;20231;-78
2023/09/28 07:03:11;;;;;;;4.22;3.17;;;21.50;54.00;;;;;;5000278;28;20199;-78
2023/09/28 07:05:40;;;;;;;3.50;3.20;;;21.50;54.00;;;;;;5016839;28;20197;-78
2023/09/28 07:08:07;;;;;;;4.25;3.78;;;21.60;54.10;;;;;;5016329;28;20197;-78
2023/09/28 07:10:35;;;;;;;4.15;3.50;;;21.60;53.90;;;;;;5000056;28;20248;-78
2023/09/28 07:13:02;;;;;;;4.13;3.72;;;21.60;53.90;;;;;;5016301;28;20564;-78
2023/09/28 07:15:29;;;;;;;4.10;3.70;;;21.70;53.90;;;;;;5032556;28;20197;-78
2023/09/28 07:17:56;;;;;;;4.07;3.38;;;21.70;53.70;;;;;;5000437;28;20233;-78
2023/09/28 07:20:23;;;;;;;4.15;3.40;;;21.70;53.70;;;;;;5016379;28;20769;-78
2023/09/28 07:22:51;;;;;;;4.25;3.58;;;21.80;53.70;;;;;;5016726;28;20659;-78
2023/09/28 07:25:19;;;;;;;4.00;3.60;;;21.80;53.70;;;;;;5016533;28;20240;-78
2023/09/28 07:27:49;;;;;;;4.93;3.58;;;21.90;53.60;;;;;;5017362;28;20197;-78
2023/09/28 07:30:18;;;;;;;5.47;3.30;;;22.00;53.40;;;;;;5016223;28;20229;-78
2023/09/28 07:32:46;;;;;;;3.53;3.22;;;22.10;53.30;;;;;;5033069;28;20201;-78
2023/09/28 07:35:13;;;;;;;4.18;3.67;;;22.20;53.30;;;;;;5016127;28;20270;-78
2023/09/28 07:37:40;;;;;;;4.32;3.15;;;22.30;53.00;;;;;;5015768;28;20196;-78
2023/09/28 07:40:12;;;;;;;4.18;3.47;;;22.40;52.70;;;;;;5017297;28;20215;-78
2023/09/28 07:42:43;;;;;;;4.35;3.70;;;22.70;52.40;;;;;;5016814;28;20201;-78
2023/09/28 07:45:12;;;;;;;4.35;3.58;;;22.80;52.10;;;;;;5016803;28;20196;-78
2023/09/28 07:47:39;;;;;;;3.92;3.15;;;23.00;51.70;;;;;;5017081;28;20227;-78
2023/09/28 07:50:07;;;;;;;3.75;3.15;;;23.30;51.60;;;;;;5015682;28;20583;-78
2023/09/28 07:52:35;;;;;;;3.85;3.08;;;23.40;51.00;;;;;;5015579;28;20725;-78
2023/09/28 07:55:02;;;;;;;4.20;3.30;;;23.50;50.70;;;;;;5015331;28;20216;-78
2023/09/28 07:57:32;;;;;;;4.35;3.20;;;23.60;50.40;;;;;;5031595;28;20212;-78
2023/09/28 07:59:59;;;;;;;3.53;3.15;;;23.70;50.20;;;;;;5015832;28;20223;-77
2023/09/28 08:02:27;;;;;;;3.20;2.90;;;23.80;49.90;;;;;;5016386;28;20201;-77
2023/09/28 08:04:54;;;;;;;3.50;3.20;;;24.00;49.60;;;;;;5031893;28;20223;-78
2023/09/28 08:07:22;;;;;;;3.47;3.17;;;24.10;49.50;;;;;;5032198;28;20566;-78
2023/09/28 08:09:49;;;;;;;3.97;3.20;;;24.20;49.20;;;;;;5015789;28;20582;-78
2023/09/28 08:12:17;;;;;;;3.05;2.75;;;24.20;49.10;;;;;;5015700;28;20295;-78
2023/09/28 08:14:45;;;;;;;3.97;2.90;;;24.30;49.00;;;;;;5015408;28;20590;-78
2023/09/28 08:17:12;;;;;;;3.63;3.15;;;24.40;48.80;;;;;;5031697;28;20204;-78
2023/09/28 08:19:40;;;;;;;3.90;2.85;;;24.50;48.60;;;;;;4998934;28;20220;-78
2023/09/28 08:22:07;;;;;;;3.63;2.95;;;24.50;48.30;;;;;;5032526;28;20205;-78
2023/09/28 08:24:33;;;;;;;2.95;2.67;;;24.50;48.30;;;;;;5015077;28;20193;-78
2023/09/28 08:27:00;;;;;;;3.45;3.15;;;24.50;48.20;;;;;;5031718;28;20197;-78
2023/09/28 08:29:27;;;;;;;3.00;2.70;;;24.50;48.20;;;;;;5014891;28;20227;-77
2023/09/28 08:31:57;;;;;;;3.78;3.05;;;24.60;48.10;;;;;;5014865;28;20223;-77
2023/09/28 08:34:24;;;;;;;3.33;2.88;;;24.70;48.00;;;;;;5015975;28;20263;-78
2023/09/28 08:36:51;;;;;;;3.63;2.95;;;24.70;47.80;;;;;;5031763;28;20201;-78
2023/09/28 08:39:18;;;;;;;3.25;2.60;;;24.80;47.80;;;;;;5031469;28;20225;-78
2023/09/28 08:41:47;;;;;;;3.53;3.22;;;24.70;47.80;;;;;;5031360;28;20211;-77
2023/09/28 08:44:14;;;;;;;3.22;2.92;;;24.70;47.90;;;;;;5016437;28;20207;-78
2023/09/28 08:46:43;;;;;;;3.22;2.78;;;24.60;48.10;;;;;;5014896;28;20204;-78
2023/09/28 08:49:14;;;;;;;3.30;2.55;;;24.50;48.10;;;;;;5032518;28;20733;-78
2023/09/28 08:51:41;;;;;;;2.92;2.63;;;24.60;48.20;;;;;;5032092;28;20289;-78
2023/09/28 08:54:08;;;;;;;3.28;2.97;;;24.60;48.00;;;;;;5016353;28;20205;-78
2023/09/28 08:56:36;;;;;;;2.83;2.55;;;24.70;47.90;;;;;;5014711;28;20201;-78
2023/09/28 08:59:03;;;;;;;3.55;2.75;;;24.90;47.70;;;;;;5014480;28;20188;-78
2023/09/28 09:01:31;;;;;;;3.55;3.13;;;24.90;47.50;;;;;;5014587;28;20243;-77
2023/09/28 09:03:58;;;;;;;3.05;2.70;;;25.00;47.40;;;;;;5015714;28;20223;-78
2023/09/28 09:06:28;;;;;;;2.72;2.50;;;25.10;47.20;;;;;;5017065;28;20280;-78
2023/09/28 09:08:55;;;;;;;2.63;2.42;;;25.20;47.10;;;;;;5017577;28;20667;-78
2023/09/28 09:11:22;;;;;;;3.13;2.70;;;25.20;46.90;;;;;;5018162;28;20197;-77
2023/09/28 09:13:49;;;;;;;3.20;2.90;;;25.30;46.90;;;;;;5000860;28;20208;-78
2023/09/28 09:16:16;;;;;;;3.38;3.08;;;25.40;46.80;;;;;;5014719;28;20201;-78
2023/09/28 09:18:43;;;;;;;3.80;3.00;;;25.40;46.50;;;;;;5014456;28;20197;-78
2023/09/28 09:21:10;;;;;;;3.05;2.75;;;25.50;46.50;;;;;;5014751;28;20197;-78
2023/09/28 09:23:38;;;;;;;3.17;2.88;;;25.50;46.40;;;;;;5014505;28;20196;-79
2023/09/28 09:26:06;;;;;;;2.92;2.63;;;25.50;46.30;;;;;;5015287;28;20255;-78
2023/09/28 09:28:34;;;;;;;2.83;2.58;;;25.50;46.30;;;;;;5015414;28;20200;-78
2023/09/28 09:31:02;;;;;;;3.17;2.60;;;25.60;46.20;;;;;;5031459;28;20232;-78
2023/09/28 09:33:29;;;;;;;2.90;2.70;;;25.60;46.10;;;;;;5032007;28;20589;-78
2023/09/28 09:35:56;;;;;;;3.45;3.15;;;25.60;46.10;;;;;;5031471;28;20291;-78
2023/09/28 09:38:24;;;;;;;3.13;2.90;;;25.60;46.00;;;;;;4999000;28;20625;-78
2023/09/28 09:41:08;;;;;;;3.13;2.83;;;25.70;46.10;;;;;;4999100;28;20213;-77
2023/09/28 09:43:35;;;;;;;2.70;2.50;;;25.70;46.20;;;;;;5013126;28;20208;-78
2023/09/28 09:46:06;;;;;;;2.92;2.63;;;25.70;46.10;;;;;;5014752;28;20539;-78
2023/09/28 09:48:38;;;;;;;2.67;2.47;;;25.70;46.20;;;;;;5015703;28;20207;-78
2023/09/28 09:51:05;;;;;;;3.67;3.08;;;25.70;46.10;;;;;;5031768;28;20220;-78
2023/09/28 09:53:34;;;;;;;3.15;2.83;;;25.70;46.00;;;;;;5031364;28;20573;-78
2023/09/28 09:56:02;;;;;;;2.75;2.55;;;25.70;46.00;;;;;;5031223;28;20199;-78
2023/09/28 09:58:37;;;;;;;2.88;2.67;;;25.80;46.10;;;;;;5031159;28;20235;-79
2023/09/28 10:01:04;;;;;;;2.92;2.65;;;25.70;46.10;;;;;;5014321;28;20226;-78
2023/09/28 10:03:32;;;;;;;2.80;2.60;;;25.70;46.10;;;;;;5014256;28;20270;-78
2023/09/28 10:05:59;;;;;;;3.03;2.78;;;25.70;46.10;;;;;;5014191;28;20197;-78
2023/09/28 10:08:26;;;;;;;3.97;2.90;;;25.80;46.20;;;;;;5015573;28;20188;-78
2023/09/28 10:10:53;;;;;;;3.00;2.70;;;25.70;46.20;;;;;;5014126;28;20216;-78
2023/09/28 10:13:20;;;;;;;3.25;2.80;;;25.70;46.20;;;;;;5014286;28;20270;-78
2023/09/28 10:15:49;;;;;;;2.83;2.50;;;25.70;46.20;;;;;;5030772;28;20215;-78
2023/09/28 10:18:15;;;;;;;2.80;2.55;;;25.70;46.20;;;;;;5013592;28;20200;-78
2023/09/28 10:20:42;;;;;;;2.88;2.63;;;25.70;46.30;;;;;;5013509;28;20594;-78
2023/09/28 10:23:13;;;;;;;2.80;2.60;;;25.60;46.30;;;;;;5014248;28;20206;-78
2023/09/28 10:25:54;;;;;;;3.08;2.53;;;25.60;46.40;;;;;;5013800;28;20195;-78
2023/09/28 10:28:21;;;;;;;2.92;2.72;;;25.60;46.50;;;;;;5031881;28;20208;-79
2023/09/28 10:31:03;;;;;;;2.85;2.53;;;25.60;46.50;;;;;;5014345;28;20255;-78
2023/09/28 10:33:32;;;;;;;2.58;2.38;;;25.60;46.60;;;;;;5015441;28;20192;-79
2023/09/28 10:36:11;;;;;;;3.08;2.78;;;25.60;46.70;;;;;;5031409;28;20678;-79
2023/09/28 10:38:40;;;;;;;2.70;2.50;;;25.50;46.70;;;;;;5014533;28;20192;-79
2023/09/28 10:41:07;;;;;;;2.70;2.50;;;25.50;46.80;;;;;;5014365;28;20223;-79
2023/09/28 10:43:39;;;;;;;3.05;2.75;;;25.50;46.90;;;;;;5015675;28;20208;-79
2023/09/28 10:46:08;;;;;;;2.70;2.50;;;25.50;46.90;;;;;;5033791;28;20203;-79
2023/09/28 10:48:39;;;;;;;2.55;2.28;;;25.40;46.90;;;;;;5015427;28;20208;-79
2023/09/28 10:51:10;;;;;;;2.60;2.40;;;25.40;46.90;;;;;;5015394;28;20216;-79
2023/09/28 10:53:37;;;;;;;2.60;2.40;;;25.40;47.00;;;;;;5016733;28;20634;-79
2023/09/28 10:56:06;;;;;;;3.08;2.78;;;25.40;47.00;;;;;;4999358;28;20220;-79
2023/09/28 10:58:34;;;;;;;2.80;2.60;;;25.40;47.10;;;;;;5017312;28;20200;-79
2023/09/28 11:01:04;;;;;;;2.60;2.40;;;25.30;47.20;;;;;;5016898;28;20686;-79
2023/09/28 11:03:33;;;;;;;2.75;2.55;;;25.30;47.30;;;;;;5017151;28;20227;-79
2023/09/28 11:06:01;;;;;;;2.60;2.40;;;25.30;47.50;;;;;;5015028;28;20223;-78
2023/09/28 11:08:28;;;;;;;2.67;2.47;;;25.20;47.60;;;;;;5030941;28;20204;-78
2023/09/28 11:10:58;;;;;;;2.97;2.45;;;25.20;47.70;;;;;;5014381;28;20281;-78
2023/09/28 11:13:25;;;;;;;2.70;2.40;;;25.20;47.70;;;;;;5015343;28;20631;-77
2023/09/28 11:15:53;;;;;;;2.70;2.50;;;25.20;47.70;;;;;;5030956;28;20611;-77
2023/09/28 11:18:21;;;;;;;2.40;2.20;;;25.20;47.70;;;;;;5013616;28;20227;-78
2023/09/28 11:20:49;;;;;;;2.53;2.30;;;25.10;47.80;;;;;;5013255;28;20224;-78
2023/09/28 11:23:16;;;;;;;2.58;2.38;;;25.10;47.80;;;;;;5014300;28;20200;-77
2023/09/28 11:25:43;;;;;;;2.65;2.45;;;25.10;48.00;;;;;;5015707;28;20196;-77
2023/09/28 11:28:10;;;;;;;2.92;2.63;;;25.10;48.00;;;;;;5012691;28;20203;-78
2023/09/28 11:30:37;;;;;;;2.63;2.42;;;25.10;48.00;;;;;;5029080;28;20319;-78
2023/09/28 11:33:08;;;;;;;2.70;2.50;;;25.20;48.10;;;;;;5133482;22;20267;31
2023/09/28 11:35:37;;;;;;;2.50;2.30;;;25.20;48.10;;;;;;4975842;28;20224;-78
2023/09/28 11:38:09;;;;;;;2.47;2.28;;;25.10;48.00;;;;;;4993241;28;20201;-78
2023/09/28 11:40:37;;;;;;;2.55;2.35;;;25.10;48.00;;;;;;4977148;28;20226;-78
2023/09/28 11:43:04;;;;;;;2.70;2.50;;;25.20;48.10;;;;;;4976727;28;20271;-78
2023/09/28 11:45:33;;;;;;;2.88;2.60;;;25.20;48.10;;;;;;4976829;28;20194;-78
2023/09/28 11:48:04;;;;;;;2.40;2.20;;;25.20;48.10;;;;;;4976604;28;20198;-78
2023/09/28 11:50:31;;;;;;;2.55;2.30;;;25.20;48.20;;;;;;4976541;28;20272;-78
2023/09/28 11:52:58;;;;;;;2.60;2.40;;;25.20;48.20;;;;;;4960400;28;20566;-78
2023/09/28 11:55:27;;;;;;;2.65;2.45;;;25.20;48.20;;;;;;4976364;28;20218;-78
2023/09/28 11:57:57;;;;;;;2.42;2.22;;;25.20;48.20;;;;;;4976362;28;20611;-78
2023/09/28 12:00:24;;;;;;;2.30;2.10;;;25.20;48.20;;;;;;4976392;28;20222;-78
2023/09/28 12:02:52;;;;;;;2.58;2.38;;;25.20;48.20;;;;;;4976309;28;20202;-78
2023/09/28 12:05:19;;;;;;;2.50;2.30;;;25.20;48.30;;;;;;4976244;28;20205;-78
2023/09/28 12:07:46;;;;;;;2.50;2.30;;;25.20;48.30;;;;;;4977359;28;20293;-77
2023/09/28 12:10:14;;;;;;;2.75;2.50;;;25.30;48.40;;;;;;4976709;28;20225;-77
2023/09/28 12:12:42;;;;;;;2.35;2.10;;;25.20;48.40;;;;;;4959984;28;20257;-77
2023/09/28 12:15:11;;;;;;;2.42;2.22;;;25.20;48.50;;;;;;4976175;28;20631;-77
2023/09/28 12:17:39;;;;;;;2.40;2.20;;;25.30;48.50;;;;;;4976535;28;20206;-77
2023/09/28 12:20:09;;;;;;;2.47;2.28;;;25.20;48.50;;;;;;4975931;28;20284;-77
2023/09/28 12:22:35;;;;;;;2.60;2.40;;;25.20;48.50;;;;;;4976227;28;20288;-77
2023/09/28 12:25:04;;;;;;;2.20;2.10;;;25.30;48.60;;;;;;4975822;28;20284;-77
2023/09/28 12:27:32;;;;;;;2.40;2.20;;;25.20;48.60;;;;;;4975758;28;20272;-77
2023/09/28 12:30:00;;;;;;;2.65;2.45;;;25.30;48.70;;;;;;4959682;28;20271;-77
2023/09/28 12:32:28;;;;;;;2.63;2.40;;;25.20;48.70;;;;;;4975751;28;20208;-77
2023/09/28 12:34:56;;;;;;;3.30;2.45;;;25.20;48.70;;;;;;4977298;28;20248;-77
2023/09/28 12:37:23;;;;;;;2.30;2.10;;;25.20;48.70;;;;;;4960159;28;20209;-77
2023/09/28 12:39:53;;;;;;;2.40;2.20;;;25.20;48.80;;;;;;4975731;28;20225;-77
2023/09/28 12:42:23;;;;;;;2.30;2.10;;;25.20;48.80;;;;;;4975547;28;20209;-77
2023/09/28 12:44:51;;;;;;;2.10;2.00;;;25.20;48.80;;;;;;4975597;28;20198;-77
2023/09/28 12:47:20;;;;;;;2.30;2.10;;;25.20;48.90;;;;;;4975456;28;20262;-77
2023/09/28 12:49:47;;;;;;;2.20;2.00;;;25.10;48.90;;;;;;4975362;28;20222;-77
2023/09/28 12:52:14;;;;;;;2.50;2.20;;;25.10;49.00;;;;;;4975503;28;20571;-77